sensor_id;sensor_type;location;lat;lon;timestamp;pressure;altitude;pressure_sealevel;temperature;humidity
47636;BME280;33364;50.766;15.338;2023-03-15T00:00:41;94004.91;;;0.63;76.13
47636;BME280;33364;50.766;15.338;2023-03-15T00:03:18;94003.09;;;0.63;73.62
47636;BME280;33364;50.766;15.338;2023-03-15T00:05:45;94005.94;;;0.55;74.39
47636;BME280;33364;50.766;15.338;2023-03-15T00:08:12;94001.75;;;0.41;68.18
47636;BME280;33364;50.766;15.338;2023-03-15T00:10:42;93998.97;;;0.22;71.64
47636;BME280;33364;50.766;15.338;2023-03-15T00:13:08;94007.22;;;0.19;74.67
47636;BME280;33364;50.766;15.338;2023-03-15T00:15:35;94008.81;;;0.33;76.23
47636;BME280;33364;50.766;15.338;2023-03-15T00:18:01;94014.16;;;0.72;79.92
47636;BME280;33364;50.766;15.338;2023-03-15T00:20:28;94014.53;;;0.76;75.65
47636;BME280;33364;50.766;15.338;2023-03-15T00:22:54;94015.31;;;0.83;74.53
47636;BME280;33364;50.766;15.338;2023-03-15T00:25:20;94020.19;;;0.66;76.64
47636;BME280;33364;50.766;15.338;2023-03-15T00:27:46;94024.22;;;0.55;74.20
47636;BME280;33364;50.766;15.338;2023-03-15T00:30:12;94021.81;;;0.60;75.89
47636;BME280;33364;50.766;15.338;2023-03-15T00:32:37;94004.34;;;0.47;67.85
47636;BME280;33364;50.766;15.338;2023-03-15T00:35:03;94011.56;;;0.59;79.54
47636;BME280;33364;50.766;15.338;2023-03-15T00:37:30;94009.03;;;0.25;75.52
47636;BME280;33364;50.766;15.338;2023-03-15T00:39:56;94011.41;;;0.40;77.85
47636;BME280;33364;50.766;15.338;2023-03-15T00:42:22;94011.47;;;0.07;72.78
47636;BME280;33364;50.766;15.338;2023-03-15T00:44:52;94018.25;;;0.14;75.01
47636;BME280;33364;50.766;15.338;2023-03-15T00:47:20;94019.84;;;0.42;79.68
47636;BME280;33364;50.766;15.338;2023-03-15T00:49:46;94028.69;;;0.48;79.16
47636;BME280;33364;50.766;15.338;2023-03-15T00:52:11;94034.72;;;0.35;70.79
47636;BME280;33364;50.766;15.338;2023-03-15T00:54:37;94035.25;;;0.64;80.92
47636;BME280;33364;50.766;15.338;2023-03-15T00:57:03;94031.53;;;0.13;72.30
47636;BME280;33364;50.766;15.338;2023-03-15T00:59:30;94048.59;;;0.35;77.87
47636;BME280;33364;50.766;15.338;2023-03-15T01:02:00;94039.97;;;0.28;74.38
47636;BME280;33364;50.766;15.338;2023-03-15T01:04:27;94042.59;;;0.28;77.67
47636;BME280;33364;50.766;15.338;2023-03-15T01:06:52;94047.63;;;0.16;72.50
47636;BME280;33364;50.766;15.338;2023-03-15T01:09:18;94051.63;;;-0.01;74.52
47636;BME280;33364;50.766;15.338;2023-03-15T01:11:44;94052.22;;;0.28;83.02
47636;BME280;33364;50.766;15.338;2023-03-15T01:14:10;94050.22;;;0.30;78.62
47636;BME280;33364;50.766;15.338;2023-03-15T01:16:35;94056.78;;;0.66;83.55
47636;BME280;33364;50.766;15.338;2023-03-15T01:19:01;94066.41;;;0.85;82.70
47636;BME280;33364;50.766;15.338;2023-03-15T01:21:27;94076.34;;;1.15;84.81
47636;BME280;33364;50.766;15.338;2023-03-15T01:23:53;94075.66;;;0.81;75.99
47636;BME280;33364;50.766;15.338;2023-03-15T01:26:19;94082.13;;;0.72;74.88
47636;BME280;33364;50.766;15.338;2023-03-15T01:28:45;94088.16;;;0.46;75.11
47636;BME280;33364;50.766;15.338;2023-03-15T01:31:20;94076.91;;;0.72;80.38
47636;BME280;33364;50.766;15.338;2023-03-15T01:33:46;94082.34;;;0.57;76.85
47636;BME280;33364;50.766;15.338;2023-03-15T01:36:12;94085.59;;;0.52;77.61
47636;BME280;33364;50.766;15.338;2023-03-15T01:38:38;94092.47;;;1.12;85.99
47636;BME280;33364;50.766;15.338;2023-03-15T01:41:04;94099.50;;;1.18;78.72
47636;BME280;33364;50.766;15.338;2023-03-15T01:43:31;94094.16;;;0.80;75.24
47636;BME280;33364;50.766;15.338;2023-03-15T01:49:08;94096.22;;;0.24;79.09
47636;BME280;33364;50.766;15.338;2023-03-15T01:51:53;94097.03;;;0.05;76.25
47636;BME280;33364;50.766;15.338;2023-03-15T01:54:29;94095.03;;;0.20;82.19
47636;BME280;33364;50.766;15.338;2023-03-15T01:59:31;94099.03;;;0.23;75.01
47636;BME280;33364;50.766;15.338;2023-03-15T02:01:58;94098.44;;;0.21;76.49
47636;BME280;33364;50.766;15.338;2023-03-15T02:04:34;94097.63;;;0.53;80.58
47636;BME280;33364;50.766;15.338;2023-03-15T02:07:02;94105.03;;;0.70;79.79
47636;BME280;33364;50.766;15.338;2023-03-15T02:09:53;94103.41;;;0.82;82.47
47636;BME280;33364;50.766;15.338;2023-03-15T02:12:21;94110.47;;;0.62;75.95
47636;BME280;33364;50.766;15.338;2023-03-15T02:14:49;94122.53;;;0.76;78.01
47636;BME280;33364;50.766;15.338;2023-03-15T02:17:18;94131.16;;;0.83;77.33
47636;BME280;33364;50.766;15.338;2023-03-15T02:27:49;94128.78;;;0.48;77.69
47636;BME280;33364;50.766;15.338;2023-03-15T02:30:17;94133.59;;;0.11;74.52
47636;BME280;33364;50.766;15.338;2023-03-15T02:32:42;94129.19;;;0.25;81.15
47636;BME280;33364;50.766;15.338;2023-03-15T02:35:09;94124.56;;;0.07;75.52
47636;BME280;33364;50.766;15.338;2023-03-15T02:37:35;94114.72;;;-0.04;76.34
47636;BME280;33364;50.766;15.338;2023-03-15T02:40:01;94117.69;;;-0.14;78.20
47636;BME280;33364;50.766;15.338;2023-03-15T02:42:27;94119.53;;;-0.01;76.70
47636;BME280;33364;50.766;15.338;2023-03-15T02:44:53;94121.47;;;-0.37;75.29
47636;BME280;33364;50.766;15.338;2023-03-15T02:47:26;94106.75;;;-0.58;78.55
47636;BME280;33364;50.766;15.338;2023-03-15T02:49:55;94105.22;;;-0.32;79.23
47636;BME280;33364;50.766;15.338;2023-03-15T02:52:21;94112.50;;;-0.76;78.53
47636;BME280;33364;50.766;15.338;2023-03-15T02:54:48;94107.63;;;-0.24;86.02
47636;BME280;33364;50.766;15.338;2023-03-15T02:57:16;94120.69;;;-0.24;79.01
47636;BME280;33364;50.766;15.338;2023-03-15T02:59:43;94121.81;;;-0.53;75.24
47636;BME280;33364;50.766;15.338;2023-03-15T03:02:09;94139.19;;;-0.19;81.31
47636;BME280;33364;50.766;15.338;2023-03-15T03:04:39;94147.69;;;0.10;82.55
47636;BME280;33364;50.766;15.338;2023-03-15T03:07:06;94144.69;;;0.47;80.94
47636;BME280;33364;50.766;15.338;2023-03-15T03:09:32;94149.69;;;0.08;77.62
47636;BME280;33364;50.766;15.338;2023-03-15T03:11:58;94146.69;;;0.25;79.35
47636;BME280;33364;50.766;15.338;2023-03-15T03:14:23;94151.88;;;0.11;81.55
47636;BME280;33364;50.766;15.338;2023-03-15T03:16:50;94166.13;;;-0.11;74.51
47636;BME280;33364;50.766;15.338;2023-03-15T03:19:16;94170.94;;;-0.08;82.46
47636;BME280;33364;50.766;15.338;2023-03-15T03:21:43;94160.53;;;0.18;80.79
47636;BME280;33364;50.766;15.338;2023-03-15T03:24:10;94162.97;;;0.20;74.90
47636;BME280;33364;50.766;15.338;2023-03-15T03:26:36;94157.25;;;-0.24;73.32
47636;BME280;33364;50.766;15.338;2023-03-15T03:29:03;94162.69;;;-0.12;82.35
47636;BME280;33364;50.766;15.338;2023-03-15T03:31:31;94155.91;;;0.01;78.31
47636;BME280;33364;50.766;15.338;2023-03-15T03:34:00;94168.59;;;0.24;83.28
47636;BME280;33364;50.766;15.338;2023-03-15T03:36:25;94176.63;;;0.15;80.83
47636;BME280;33364;50.766;15.338;2023-03-15T03:38:52;94180.97;;;-0.05;76.34
47636;BME280;33364;50.766;15.338;2023-03-15T03:41:18;94190.78;;;-0.21;77.15
47636;BME280;33364;50.766;15.338;2023-03-15T03:43:45;94192.59;;;-0.21;78.39
47636;BME280;33364;50.766;15.338;2023-03-15T03:46:11;94202.53;;;0.17;81.35
47636;BME280;33364;50.766;15.338;2023-03-15T03:48:37;94206.72;;;-0.02;74.66
47636;BME280;33364;50.766;15.338;2023-03-15T03:51:02;94206.41;;;-0.34;79.46
47636;BME280;33364;50.766;15.338;2023-03-15T03:53:28;94218.09;;;-0.23;82.78
47636;BME280;33364;50.766;15.338;2023-03-15T03:55:54;94214.66;;;-0.30;78.63
47636;BME280;33364;50.766;15.338;2023-03-15T03:58:21;94213.84;;;-0.38;77.70
47636;BME280;33364;50.766;15.338;2023-03-15T04:00:46;94219.94;;;-0.10;80.21
47636;BME280;33364;50.766;15.338;2023-03-15T04:03:13;94210.53;;;0.02;77.92
47636;BME280;33364;50.766;15.338;2023-03-15T04:05:38;94219.34;;;-0.54;73.54
47636;BME280;33364;50.766;15.338;2023-03-15T04:08:04;94233.69;;;-0.37;84.54
47636;BME280;33364;50.766;15.338;2023-03-15T04:10:30;94247.41;;;-0.28;81.56
47636;BME280;33364;50.766;15.338;2023-03-15T04:13:00;94257.34;;;-0.45;77.84
47636;BME280;33364;50.766;15.338;2023-03-15T04:15:26;94260.00;;;-0.38;81.48
47636;BME280;33364;50.766;15.338;2023-03-15T04:17:52;94270.81;;;-0.41;80.42
47636;BME280;33364;50.766;15.338;2023-03-15T04:20:21;94278.41;;;-0.46;75.78
47636;BME280;33364;50.766;15.338;2023-03-15T04:22:47;94278.19;;;-0.51;78.84
47636;BME280;33364;50.766;15.338;2023-03-15T04:25:16;94287.38;;;-0.27;81.10
47636;BME280;33364;50.766;15.338;2023-03-15T04:27:42;94302.50;;;-0.44;76.49
47636;BME280;33364;50.766;15.338;2023-03-15T04:30:09;94309.13;;;-0.48;76.14
47636;BME280;33364;50.766;15.338;2023-03-15T04:32:35;94310.56;;;-0.46;76.96
47636;BME280;33364;50.766;15.338;2023-03-15T04:35:01;94298.19;;;-0.65;75.55
47636;BME280;33364;50.766;15.338;2023-03-15T04:37:27;94314.25;;;-0.90;75.12
47636;BME280;33364;50.766;15.338;2023-03-15T04:39:53;94314.47;;;-0.91;77.36
47636;BME280;33364;50.766;15.338;2023-03-15T04:42:19;94308.78;;;-0.95;78.95
47636;BME280;33364;50.766;15.338;2023-03-15T04:44:45;94312.50;;;-0.54;84.17
47636;BME280;33364;50.766;15.338;2023-03-15T04:47:11;94300.31;;;-0.76;77.71
47636;BME280;33364;50.766;15.338;2023-03-15T04:49:37;94313.50;;;-0.56;78.69
47636;BME280;33364;50.766;15.338;2023-03-15T04:52:03;94315.28;;;-0.56;76.84
47636;BME280;33364;50.766;15.338;2023-03-15T04:54:28;94314.28;;;-0.62;77.61
47636;BME280;33364;50.766;15.338;2023-03-15T04:56:55;94318.50;;;-0.54;77.53
47636;BME280;33364;50.766;15.338;2023-03-15T04:59:20;94313.78;;;-0.44;78.31
47636;BME280;33364;50.766;15.338;2023-03-15T05:01:46;94312.28;;;-0.60;75.91
47636;BME280;33364;50.766;15.338;2023-03-15T05:04:12;94312.50;;;-0.54;82.74
47636;BME280;33364;50.766;15.338;2023-03-15T05:06:38;94308.03;;;-0.61;76.22
47636;BME280;33364;50.766;15.338;2023-03-15T05:09:04;94307.09;;;-0.81;76.33
47636;BME280;33364;50.766;15.338;2023-03-15T05:11:30;94309.06;;;-0.62;80.84
47636;BME280;33364;50.766;15.338;2023-03-15T05:13:55;94310.19;;;-0.71;76.33
47636;BME280;33364;50.766;15.338;2023-03-15T05:16:21;94307.25;;;-0.89;77.66
47636;BME280;33364;50.766;15.338;2023-03-15T05:18:47;94314.03;;;-0.67;76.82
47636;BME280;33364;50.766;15.338;2023-03-15T05:21:13;94305.19;;;-0.66;79.46
47636;BME280;33364;50.766;15.338;2023-03-15T05:23:38;94308.38;;;-0.70;76.55
47636;BME280;33364;50.766;15.338;2023-03-15T05:26:04;94320.00;;;-0.73;75.33
47636;BME280;33364;50.766;15.338;2023-03-15T05:28:30;94319.00;;;-0.72;76.33
47636;BME280;33364;50.766;15.338;2023-03-15T05:30:56;94323.00;;;-0.76;79.52
47636;BME280;33364;50.766;15.338;2023-03-15T05:33:22;94328.94;;;-0.54;77.35
47636;BME280;33364;50.766;15.338;2023-03-15T05:35:49;94337.97;;;-0.57;74.19
47636;BME280;33364;50.766;15.338;2023-03-15T05:38:17;94343.50;;;-0.38;78.76
47636;BME280;33364;50.766;15.338;2023-03-15T05:40:44;94343.63;;;-0.18;80.81
47636;BME280;33364;50.766;15.338;2023-03-15T05:43:11;94356.81;;;0.02;80.28
47636;BME280;33364;50.766;15.338;2023-03-15T05:45:37;94362.56;;;-0.09;78.26
47636;BME280;33364;50.766;15.338;2023-03-15T05:48:04;94367.03;;;-0.03;80.73
47636;BME280;33364;50.766;15.338;2023-03-15T05:50:30;94368.91;;;-0.53;77.86
47636;BME280;33364;50.766;15.338;2023-03-15T05:52:56;94379.34;;;-0.53;78.11
47636;BME280;33364;50.766;15.338;2023-03-15T05:55:22;94383.31;;;-0.58;76.64
47636;BME280;33364;50.766;15.338;2023-03-15T05:57:48;94384.22;;;-0.72;75.96
47636;BME280;33364;50.766;15.338;2023-03-15T06:00:15;94392.38;;;-0.82;76.15
47636;BME280;33364;50.766;15.338;2023-03-15T06:02:41;94399.19;;;-0.81;78.08
47636;BME280;33364;50.766;15.338;2023-03-15T06:05:07;94408.59;;;-0.86;76.41
47636;BME280;33364;50.766;15.338;2023-03-15T06:07:33;94418.66;;;-0.33;82.01
47636;BME280;33364;50.766;15.338;2023-03-15T06:09:59;94427.41;;;-0.20;77.79
47636;BME280;33364;50.766;15.338;2023-03-15T06:12:24;94434.44;;;-0.13;76.45
47636;BME280;33364;50.766;15.338;2023-03-15T06:14:50;94438.44;;;-0.46;74.60
47636;BME280;33364;50.766;15.338;2023-03-15T06:17:16;94444.22;;;-0.50;73.05
47636;BME280;33364;50.766;15.338;2023-03-15T06:19:41;94451.28;;;-0.44;79.58
47636;BME280;33364;50.766;15.338;2023-03-15T06:22:07;94453.97;;;-0.38;81.90
47636;BME280;33364;50.766;15.338;2023-03-15T06:24:33;94459.47;;;-0.26;75.46
47636;BME280;33364;50.766;15.338;2023-03-15T06:26:59;94467.91;;;-0.52;75.81
47636;BME280;33364;50.766;15.338;2023-03-15T06:29:25;94464.47;;;-0.74;74.92
47636;BME280;33364;50.766;15.338;2023-03-15T06:31:50;94472.81;;;-0.42;81.97
47636;BME280;33364;50.766;15.338;2023-03-15T06:34:18;94467.53;;;-0.49;76.66
47636;BME280;33364;50.766;15.338;2023-03-15T06:36:44;94479.50;;;-0.54;75.77
47636;BME280;33364;50.766;15.338;2023-03-15T06:39:11;94475.34;;;-0.49;78.85
47636;BME280;33364;50.766;15.338;2023-03-15T06:41:38;94481.94;;;-0.53;76.66
47636;BME280;33364;50.766;15.338;2023-03-15T06:44:04;94484.09;;;-0.35;77.60
47636;BME280;33364;50.766;15.338;2023-03-15T06:46:30;94500.22;;;-0.25;75.85
47636;BME280;33364;50.766;15.338;2023-03-15T06:48:56;94505.59;;;-0.11;80.53
47636;BME280;33364;50.766;15.338;2023-03-15T06:51:22;94508.72;;;-0.23;74.96
47636;BME280;33364;50.766;15.338;2023-03-15T06:53:48;94506.00;;;-0.08;77.29
47636;BME280;33364;50.766;15.338;2023-03-15T06:56:13;94511.75;;;0.09;80.22
47636;BME280;33364;50.766;15.338;2023-03-15T06:58:39;94520.81;;;0.42;79.38
47636;BME280;33364;50.766;15.338;2023-03-15T07:01:05;94511.00;;;0.50;76.20
47636;BME280;33364;50.766;15.338;2023-03-15T07:03:31;94517.03;;;0.44;74.80
47636;BME280;33364;50.766;15.338;2023-03-15T07:05:57;94523.34;;;0.28;75.59
47636;BME280;33364;50.766;15.338;2023-03-15T07:08:24;94527.75;;;0.56;77.15
47636;BME280;33364;50.766;15.338;2023-03-15T07:10:51;94514.94;;;0.68;73.86
47636;BME280;33364;50.766;15.338;2023-03-15T07:13:18;94523.34;;;0.98;74.82
47636;BME280;33364;50.766;15.338;2023-03-15T07:15:44;94525.31;;;0.96;76.49
47636;BME280;33364;50.766;15.338;2023-03-15T07:18:10;94524.75;;;1.01;79.77
47636;BME280;33364;50.766;15.338;2023-03-15T07:20:35;94530.31;;;1.46;81.49
47636;BME280;33364;50.766;15.338;2023-03-15T07:23:01;94535.78;;;1.51;81.42
47636;BME280;33364;50.766;15.338;2023-03-15T07:25:27;94537.97;;;1.41;74.29
47636;BME280;33364;50.766;15.338;2023-03-15T07:27:53;94531.47;;;1.23;74.06
47636;BME280;33364;50.766;15.338;2023-03-15T07:30:20;94542.53;;;1.25;79.19
47636;BME280;33364;50.766;15.338;2023-03-15T07:32:46;94538.06;;;1.19;73.35
47636;BME280;33364;50.766;15.338;2023-03-15T07:35:12;94546.97;;;0.83;71.77
47636;BME280;33364;50.766;15.338;2023-03-15T07:37:38;94542.28;;;1.07;74.80
47636;BME280;33364;50.766;15.338;2023-03-15T07:40:04;94539.34;;;1.30;73.07
47636;BME280;33364;50.766;15.338;2023-03-15T07:42:38;94540.81;;;1.53;73.79
47636;BME280;33364;50.766;15.338;2023-03-15T07:45:05;94539.84;;;1.74;72.02
47636;BME280;33364;50.766;15.338;2023-03-15T07:47:31;94539.28;;;2.12;75.38
47636;BME280;33364;50.766;15.338;2023-03-15T07:49:57;94537.03;;;2.22;70.89
47636;BME280;33364;50.766;15.338;2023-03-15T07:52:24;94532.41;;;1.97;67.61
47636;BME280;33364;50.766;15.338;2023-03-15T07:54:50;94533.22;;;2.18;72.86
47636;BME280;33364;50.766;15.338;2023-03-15T07:57:16;94536.66;;;2.18;68.34
47636;BME280;33364;50.766;15.338;2023-03-15T07:59:42;94538.25;;;2.33;69.61
47636;BME280;33364;50.766;15.338;2023-03-15T08:02:11;94542.69;;;2.39;70.77
47636;BME280;33364;50.766;15.338;2023-03-15T08:04:38;94549.09;;;2.70;69.48
47636;BME280;33364;50.766;15.338;2023-03-15T08:07:05;94549.59;;;3.05;71.16
47636;BME280;33364;50.766;15.338;2023-03-15T08:09:30;94544.75;;;3.02;66.03
47636;BME280;33364;50.766;15.338;2023-03-15T08:12:00;94550.66;;;2.98;59.02
47636;BME280;33364;50.766;15.338;2023-03-15T08:14:26;94548.25;;;2.89;61.84
47636;BME280;33364;50.766;15.338;2023-03-15T08:16:52;94550.69;;;2.71;58.74
47636;BME280;33364;50.766;15.338;2023-03-15T08:19:18;94557.41;;;2.60;62.64
47636;BME280;33364;50.766;15.338;2023-03-15T08:21:44;94564.00;;;2.76;62.88
47636;BME280;33364;50.766;15.338;2023-03-15T08:24:10;94558.00;;;2.62;62.20
47636;BME280;33364;50.766;15.338;2023-03-15T08:26:37;94561.81;;;2.53;65.58
47636;BME280;33364;50.766;15.338;2023-03-15T08:29:02;94574.56;;;2.43;57.51
47636;BME280;33364;50.766;15.338;2023-03-15T08:31:28;94571.72;;;2.51;63.39
47636;BME280;33364;50.766;15.338;2023-03-15T08:33:54;94572.72;;;2.63;59.86
47636;BME280;33364;50.766;15.338;2023-03-15T08:36:20;94574.53;;;1.96;55.74
47636;BME280;33364;50.766;15.338;2023-03-15T08:38:45;94572.53;;;2.05;64.47
47636;BME280;33364;50.766;15.338;2023-03-15T08:41:11;94589.06;;;2.05;58.13
47636;BME280;33364;50.766;15.338;2023-03-15T08:43:37;94578.53;;;1.72;56.35
47636;BME280;33364;50.766;15.338;2023-03-15T08:46:03;94589.94;;;1.44;59.55
47636;BME280;33364;50.766;15.338;2023-03-15T08:48:29;94585.72;;;1.56;55.23
47636;BME280;33364;50.766;15.338;2023-03-15T08:51:01;94581.56;;;1.82;53.73
47636;BME280;33364;50.766;15.338;2023-03-15T08:53:27;94588.59;;;1.75;55.46
47636;BME280;33364;50.766;15.338;2023-03-15T08:55:53;94586.03;;;2.48;56.47
47636;BME280;33364;50.766;15.338;2023-03-15T08:58:18;94580.38;;;2.78;57.80
47636;BME280;33364;50.766;15.338;2023-03-15T09:00:44;94588.25;;;2.78;53.20
47636;BME280;33364;50.766;15.338;2023-03-15T09:03:11;94581.94;;;2.99;55.45
47636;BME280;33364;50.766;15.338;2023-03-15T09:05:37;94579.47;;;3.18;47.24
47636;BME280;33364;50.766;15.338;2023-03-15T09:08:03;94587.25;;;3.38;50.70
47636;BME280;33364;50.766;15.338;2023-03-15T09:10:29;94591.06;;;3.48;48.40
47636;BME280;33364;50.766;15.338;2023-03-15T09:12:55;94591.56;;;3.71;52.04
47636;BME280;33364;50.766;15.338;2023-03-15T09:15:21;94599.66;;;3.69;52.15
47636;BME280;33364;50.766;15.338;2023-03-15T09:17:48;94605.03;;;3.42;50.83
47636;BME280;33364;50.766;15.338;2023-03-15T09:20:15;94608.53;;;3.16;51.41
47636;BME280;33364;50.766;15.338;2023-03-15T09:22:49;94599.31;;;3.91;52.15
47636;BME280;33364;50.766;15.338;2023-03-15T09:25:16;94597.47;;;3.98;51.12
47636;BME280;33364;50.766;15.338;2023-03-15T09:27:41;94606.38;;;3.97;52.00
47636;BME280;33364;50.766;15.338;2023-03-15T09:30:08;94606.47;;;4.15;52.69
47636;BME280;33364;50.766;15.338;2023-03-15T09:32:34;94610.84;;;3.51;47.99
47636;BME280;33364;50.766;15.338;2023-03-15T09:35:02;94609.66;;;3.85;52.18
47636;BME280;33364;50.766;15.338;2023-03-15T09:37:28;94604.06;;;3.75;52.86
47636;BME280;33364;50.766;15.338;2023-03-15T09:39:55;94606.72;;;4.07;52.77
47636;BME280;33364;50.766;15.338;2023-03-15T09:47:34;94610.75;;;4.41;51.11
47636;BME280;33364;50.766;15.338;2023-03-15T09:53:03;94607.13;;;5.05;49.90
47636;BME280;33364;50.766;15.338;2023-03-15T09:55:31;94597.38;;;5.12;44.20
47636;BME280;33364;50.766;15.338;2023-03-15T09:57:59;94604.94;;;5.02;45.92
47636;BME280;33364;50.766;15.338;2023-03-15T10:00:43;94598.38;;;5.29;43.93
47636;BME280;33364;50.766;15.338;2023-03-15T10:03:25;94603.50;;;6.52;47.59
47636;BME280;33364;50.766;15.338;2023-03-15T10:06:00;94606.38;;;6.86;44.43
47636;BME280;33364;50.766;15.338;2023-03-15T10:08:27;94599.16;;;7.05;40.91
47636;BME280;33364;50.766;15.338;2023-03-15T10:16:39;94602.22;;;7.38;41.98
47636;BME280;33364;50.766;15.338;2023-03-15T10:24:27;94602.38;;;6.84;45.88
47636;BME280;33364;50.766;15.338;2023-03-15T10:26:58;94615.97;;;6.45;44.83
47636;BME280;33364;50.766;15.338;2023-03-15T10:29:30;94615.81;;;6.82;41.58
47636;BME280;33364;50.766;15.338;2023-03-15T10:31:56;94613.06;;;7.65;40.99
47636;BME280;33364;50.766;15.338;2023-03-15T10:34:22;94610.19;;;7.78;36.92
47636;BME280;33364;50.766;15.338;2023-03-15T10:36:51;94606.22;;;8.38;40.74
47636;BME280;33364;50.766;15.338;2023-03-15T10:39:20;94617.88;;;8.08;41.88
47636;BME280;33364;50.766;15.338;2023-03-15T10:41:48;94622.22;;;7.86;41.40
47636;BME280;33364;50.766;15.338;2023-03-15T10:44:23;94625.28;;;7.54;41.66
47636;BME280;33364;50.766;15.338;2023-03-15T10:47:01;94635.81;;;6.05;42.85
47636;BME280;33364;50.766;15.338;2023-03-15T10:49:38;94636.00;;;5.37;45.16
47636;BME280;33364;50.766;15.338;2023-03-15T10:52:23;94631.66;;;4.80;45.36
47636;BME280;33364;50.766;15.338;2023-03-15T10:54:50;94634.41;;;4.67;45.63
47636;BME280;33364;50.766;15.338;2023-03-15T10:57:18;94632.03;;;4.84;48.37
47636;BME280;33364;50.766;15.338;2023-03-15T10:59:57;94627.28;;;4.49;48.07
47636;BME280;33364;50.766;15.338;2023-03-15T11:02:24;94634.59;;;4.47;46.01
47636;BME280;33364;50.766;15.338;2023-03-15T11:05:14;94621.63;;;4.13;50.48
47636;BME280;33364;50.766;15.338;2023-03-15T11:07:58;94631.69;;;4.23;49.69
47636;BME280;33364;50.766;15.338;2023-03-15T11:10:27;94628.66;;;3.94;44.61
47636;BME280;33364;50.766;15.338;2023-03-15T11:13:16;94631.94;;;3.83;44.31
47636;BME280;33364;50.766;15.338;2023-03-15T11:15:48;94622.53;;;2.90;46.46
47636;BME280;33364;50.766;15.338;2023-03-15T11:18:20;94615.72;;;3.47;48.54
47636;BME280;33364;50.766;15.338;2023-03-15T11:20:49;94612.25;;;3.54;49.96
47636;BME280;33364;50.766;15.338;2023-03-15T11:23:23;94613.75;;;3.81;49.88
47636;BME280;33364;50.766;15.338;2023-03-15T11:25:51;94611.38;;;4.05;48.90
47636;BME280;33364;50.766;15.338;2023-03-15T11:28:20;94609.78;;;4.04;48.08
47636;BME280;33364;50.766;15.338;2023-03-15T11:30:48;94604.78;;;3.96;48.20
47636;BME280;33364;50.766;15.338;2023-03-15T11:33:44;94614.16;;;4.10;49.42
47636;BME280;33364;50.766;15.338;2023-03-15T11:36:17;94612.66;;;4.28;49.01
47636;BME280;33364;50.766;15.338;2023-03-15T11:38:44;94618.16;;;4.19;49.16
47636;BME280;33364;50.766;15.338;2023-03-15T11:41:33;94617.38;;;3.80;45.46
47636;BME280;33364;50.766;15.338;2023-03-15T11:44:11;94616.53;;;3.86;50.83
47636;BME280;33364;50.766;15.338;2023-03-15T11:46:47;94623.47;;;3.74;51.18
47636;BME280;33364;50.766;15.338;2023-03-15T11:52:09;94616.59;;;3.80;51.06
47636;BME280;33364;50.766;15.338;2023-03-15T11:54:35;94616.75;;;3.85;50.83
47636;BME280;33364;50.766;15.338;2023-03-15T11:57:04;94620.66;;;3.69;48.74
47636;BME280;33364;50.766;15.338;2023-03-15T11:59:37;94619.38;;;3.33;52.40
47636;BME280;33364;50.766;15.338;2023-03-15T12:04:47;94619.31;;;3.60;52.22
47636;BME280;33364;50.766;15.338;2023-03-15T12:09:50;94617.09;;;3.57;55.03
47636;BME280;33364;50.766;15.338;2023-03-15T12:17:52;94618.81;;;3.76;52.94
47636;BME280;33364;50.766;15.338;2023-03-15T12:20:37;94623.91;;;3.12;53.78
47636;BME280;33364;50.766;15.338;2023-03-15T12:25:53;94618.47;;;2.94;59.29
47636;BME280;33364;50.766;15.338;2023-03-15T12:28:24;94618.09;;;2.84;54.00
47636;BME280;33364;50.766;15.338;2023-03-15T12:30:56;94619.06;;;3.03;62.14
47636;BME280;33364;50.766;15.338;2023-03-15T12:33:24;94623.69;;;3.01;57.20
47636;BME280;33364;50.766;15.338;2023-03-15T12:35:59;94632.22;;;2.83;59.71
47636;BME280;33364;50.766;15.338;2023-03-15T12:38:34;94633.03;;;2.77;60.77
47636;BME280;33364;50.766;15.338;2023-03-15T12:41:06;94635.88;;;2.75;59.48
47636;BME280;33364;50.766;15.338;2023-03-15T12:43:45;94639.09;;;2.64;60.63
47636;BME280;33364;50.766;15.338;2023-03-15T12:49:13;94648.34;;;2.19;60.38
47636;BME280;33364;50.766;15.338;2023-03-15T12:54:52;94641.09;;;2.55;64.48
47636;BME280;33364;50.766;15.338;2023-03-15T12:57:30;94645.13;;;2.78;60.91
47636;BME280;33364;50.766;15.338;2023-03-15T13:02:45;94644.09;;;3.05;62.43
47636;BME280;33364;50.766;15.338;2023-03-15T13:05:19;94634.47;;;3.51;57.63
47636;BME280;33364;50.766;15.338;2023-03-15T13:08:14;94631.59;;;3.07;59.85
47636;BME280;33364;50.766;15.338;2023-03-15T13:10:52;94639.69;;;2.72;58.64
47636;BME280;33364;50.766;15.338;2023-03-15T13:21:39;94648.78;;;2.77;57.52
47636;BME280;33364;50.766;15.338;2023-03-15T13:24:21;94644.34;;;2.57;56.91
47636;BME280;33364;50.766;15.338;2023-03-15T13:26:58;94646.97;;;2.57;61.46
47636;BME280;33364;50.766;15.338;2023-03-15T13:29:30;94651.22;;;2.71;64.61
47636;BME280;33364;50.766;15.338;2023-03-15T13:32:02;94661.47;;;2.33;61.67
47636;BME280;33364;50.766;15.338;2023-03-15T13:34:33;94680.00;;;2.18;63.52
47636;BME280;33364;50.766;15.338;2023-03-15T13:36:59;94678.28;;;1.77;68.03
47636;BME280;33364;50.766;15.338;2023-03-15T13:39:31;94684.06;;;1.59;68.93
47636;BME280;33364;50.766;15.338;2023-03-15T13:42:04;94676.00;;;1.25;71.49
47636;BME280;33364;50.766;15.338;2023-03-15T13:44:32;94683.09;;;1.32;71.84
47636;BME280;33364;50.766;15.338;2023-03-15T13:46:58;94689.97;;;1.33;74.01
47636;BME280;33364;50.766;15.338;2023-03-15T13:49:30;94681.47;;;1.31;73.95
47636;BME280;33364;50.766;15.338;2023-03-15T13:51:55;94689.69;;;1.62;76.55
47636;BME280;33364;50.766;15.338;2023-03-15T13:54:32;94695.25;;;1.94;72.23
47636;BME280;33364;50.766;15.338;2023-03-15T13:57:07;94688.28;;;2.22;75.01
47636;BME280;33364;50.766;15.338;2023-03-15T13:59:40;94683.09;;;2.68;72.82
47636;BME280;33364;50.766;15.338;2023-03-15T14:05:12;94678.25;;;2.52;66.34
47636;BME280;33364;50.766;15.338;2023-03-15T14:07:41;94684.91;;;3.01;71.54
47636;BME280;33364;50.766;15.338;2023-03-15T14:12:52;94675.53;;;3.91;61.64
47636;BME280;33364;50.766;15.338;2023-03-15T14:15:35;94673.25;;;3.56;62.28